Time;durP1;ratioP1;P1;durP2;ratioP2;P2;SDS_P1;SDS_P2;PMS_P1;PMS_P2;Temp;Humidity;BMP_temperature;BMP_pressure;BME280_temperature;BME280_humidity;BME280_pressure;Samples;Min_cycle;Max_cycle;Signal;HPM_P1;HPM_P2
2022/02/16 00:01:33;;;;;;;3.28;1.50;;;3.10;99.90;;;;;;5076670;28;20021;-82
2022/02/16 00:03:59;;;;;;;1.58;1.33;;;3.10;99.90;;;;;;5075813;28;20032;-80
2022/02/16 00:06:25;;;;;;;1.40;1.30;;;3.00;99.90;;;;;;5059602;28;20123;-81
2022/02/16 00:08:51;;;;;;;3.55;1.35;;;3.00;99.90;;;;;;5059735;28;20025;-80
2022/02/16 00:11:17;;;;;;;2.28;1.42;;;3.00;99.90;;;;;;5077149;28;20033;-81
2022/02/16 00:13:42;;;;;;;1.65;1.52;;;3.00;99.90;;;;;;5076437;28;20021;-81
2022/02/16 00:16:08;;;;;;;3.15;1.55;;;3.00;99.90;;;;;;5076546;28;20019;-81
2022/02/16 00:18:36;;;;;;;1.77;1.63;;;3.00;99.90;;;;;;5075363;28;20025;-80
2022/02/16 00:21:02;;;;;;;1.75;1.08;;;3.00;99.90;;;;;;5076676;28;20049;-82
2022/02/16 00:23:28;;;;;;;1.75;1.30;;;3.00;99.90;;;;;;5077426;28;20048;-81
2022/02/16 00:25:55;;;;;;;1.65;1.17;;;3.00;99.90;;;;;;5075156;28;20032;-81
2022/02/16 00:28:22;;;;;;;4.03;1.20;;;2.90;99.90;;;;;;5054473;28;20036;-81
2022/02/16 00:30:48;;;;;;;1.05;1.00;;;2.90;99.90;;;;;;5075479;28;20035;-81
2022/02/16 00:33:14;;;;;;;4.22;1.33;;;2.90;99.90;;;;;;5079672;28;20013;-82
2022/02/16 00:35:42;;;;;;;4.65;1.42;;;2.90;99.90;;;;;;5079402;28;20017;-81
2022/02/16 00:38:08;;;;;;;3.03;1.27;;;2.90;99.80;;;;;;5079576;28;20025;-81
2022/02/16 00:40:34;;;;;;;2.53;0.90;;;2.90;99.80;;;;;;5075922;28;20088;-80
2022/02/16 00:43:00;;;;;;;1.02;0.93;;;2.90;99.80;;;;;;5056453;28;20027;-80
2022/02/16 00:45:25;;;;;;;1.73;0.90;;;2.90;99.50;;;;;;5074641;28;20032;-80
2022/02/16 00:47:51;;;;;;;1.65;1.05;;;2.80;99.50;;;;;;5073541;28;20009;-81
2022/02/16 00:50:17;;;;;;;2.60;0.93;;;2.80;99.60;;;;;;5073867;28;20021;-81
2022/02/16 00:52:43;;;;;;;3.15;1.00;;;2.80;99.50;;;;;;5056285;28;20379;-82
2022/02/16 00:55:10;;;;;;;1.58;0.90;;;2.80;98.90;;;;;;5073332;28;20059;-81
2022/02/16 00:57:36;;;;;;;0.60;0.60;;;2.80;98.80;;;;;;5072564;28;20013;-79
2022/02/16 01:00:04;;;;;;;0.88;0.47;;;2.80;98.60;;;;;;5073361;28;20025;-79
2022/02/16 01:02:31;;;;;;;1.00;0.50;;;2.80;98.20;;;;;;5056769;28;20021;-81
2022/02/16 01:04:56;;;;;;;0.50;0.50;;;2.90;97.80;;;;;;5075728;28;20009;-82
2022/02/16 01:07:22;;;;;;;0.88;0.50;;;2.90;97.40;;;;;;5076489;28;20035;-81
2022/02/16 01:09:48;;;;;;;1.17;0.45;;;2.90;97.00;;;;;;5075246;28;20040;-80
2022/02/16 01:12:14;;;;;;;0.43;0.40;;;2.90;96.50;;;;;;5075357;28;20084;-81
2022/02/16 01:14:40;;;;;;;0.90;0.50;;;2.90;96.20;;;;;;5074039;28;20055;-80
2022/02/16 01:17:06;;;;;;;0.47;0.30;;;2.90;96.00;;;;;;5074459;28;20065;-81
2022/02/16 01:19:32;;;;;;;1.17;0.47;;;2.90;95.70;;;;;;5075161;28;20028;-81
2022/02/16 01:21:58;;;;;;;1.10;0.47;;;2.90;95.50;;;;;;5074842;28;20035;-81
2022/02/16 01:24:24;;;;;;;1.10;0.40;;;2.90;95.30;;;;;;5074374;28;20021;-80
2022/02/16 01:26:50;;;;;;;0.65;0.55;;;2.90;95.10;;;;;;5056171;28;20020;-82
2022/02/16 01:29:16;;;;;;;0.40;0.40;;;2.90;95.00;;;;;;5056444;28;20025;-81
2022/02/16 01:31:42;;;;;;;1.42;0.40;;;2.80;94.90;;;;;;5056363;28;20039;-81
2022/02/16 01:34:08;;;;;;;1.75;0.60;;;2.90;94.80;;;;;;5074222;28;20021;-81
2022/02/16 01:36:34;;;;;;;1.98;0.60;;;2.90;94.70;;;;;;5071090;28;20033;-81
2022/02/16 01:39:00;;;;;;;0.60;0.35;;;2.90;94.50;;;;;;5068501;28;20032;-81
2022/02/16 01:41:26;;;;;;;0.68;0.35;;;2.90;94.10;;;;;;5069767;28;20040;-80
2022/02/16 01:43:53;;;;;;;0.55;0.35;;;2.90;94.10;;;;;;5069616;28;20005;-81
2022/02/16 01:46:20;;;;;;;0.50;0.30;;;3.00;93.80;;;;;;5070338;28;20403;-81
2022/02/16 01:48:46;;;;;;;0.50;0.28;;;3.00;93.50;;;;;;5052849;28;20025;-80
2022/02/16 01:51:12;;;;;;;0.63;0.32;;;3.00;93.30;;;;;;5070447;28;20105;-80
2022/02/16 01:53:39;;;;;;;2.08;0.50;;;3.00;93.20;;;;;;5073136;28;20071;-81
2022/02/16 01:56:06;;;;;;;1.38;0.30;;;3.00;93.10;;;;;;5056777;28;20025;-81
2022/02/16 01:58:35;;;;;;;0.10;0.10;;;3.00;93.00;;;;;;5075713;28;20051;-81
2022/02/16 02:01:04;;;;;;;1.00;0.38;;;3.00;93.00;;;;;;5075503;28;20017;-80
2022/02/16 02:03:32;;;;;;;1.75;0.40;;;2.90;92.90;;;;;;5076697;28;20016;-81
2022/02/16 02:06:01;;;;;;;1.25;0.30;;;2.90;92.80;;;;;;5058874;28;20009;-81
2022/02/16 02:08:27;;;;;;;2.72;0.65;;;2.90;92.90;;;;;;5071235;28;20028;-82
2022/02/16 02:10:59;;;;;;;1.73;0.57;;;2.80;92.90;;;;;;5039080;28;20078;-81
2022/02/16 02:13:28;;;;;;;2.65;0.82;;;2.80;93.00;;;;;;5039129;28;20064;-81
2022/02/16 02:15:54;;;;;;;1.08;0.60;;;2.70;93.20;;;;;;5055736;28;20064;-80
2022/02/16 02:18:21;;;;;;;1.70;0.60;;;2.70;93.50;;;;;;5055308;28;20029;-81
2022/02/16 02:20:47;;;;;;;2.88;0.65;;;2.60;93.60;;;;;;5037885;28;20029;-80
2022/02/16 02:23:13;;;;;;;2.92;0.73;;;2.60;93.90;;;;;;5055647;28;20018;-81
2022/02/16 02:25:54;;;;;;;0.98;0.50;;;2.50;94.30;;;;;;5055899;28;20044;-80
2022/02/16 02:28:24;;;;;;;0.95;0.57;;;2.40;94.60;;;;;;5055510;28;20031;-81
2022/02/16 02:30:50;;;;;;;1.75;0.57;;;2.40;94.90;;;;;;5038445;28;20032;-80
2022/02/16 02:33:17;;;;;;;1.08;0.45;;;2.30;95.20;;;;;;5056774;28;20014;-81
2022/02/16 02:35:43;;;;;;;0.35;0.35;;;2.20;95.60;;;;;;5040421;28;20045;-82
2022/02/16 02:38:09;;;;;;;1.00;0.70;;;2.20;95.90;;;;;;5038479;28;20036;-81
2022/02/16 02:40:35;;;;;;;0.57;0.50;;;2.20;96.10;;;;;;5056149;28;20014;-81
2022/02/16 02:43:01;;;;;;;2.88;0.77;;;2.20;96.30;;;;;;5039849;28;20048;-81
2022/02/16 02:45:27;;;;;;;0.40;0.40;;;2.20;96.50;;;;;;5057002;28;20037;-81
2022/02/16 02:47:53;;;;;;;0.50;0.50;;;2.20;96.70;;;;;;5055569;28;20052;-82
2022/02/16 02:50:19;;;;;;;0.90;0.70;;;2.10;96.80;;;;;;5055499;28;20029;-82
2022/02/16 02:52:44;;;;;;;1.85;0.80;;;2.10;96.90;;;;;;5055289;28;20033;-82
2022/02/16 02:55:12;;;;;;;1.15;0.50;;;2.10;97.10;;;;;;5055630;28;20042;-82
2022/02/16 02:57:40;;;;;;;0.73;0.60;;;2.10;97.30;;;;;;5067369;28;20029;-82
2022/02/16 03:00:08;;;;;;;1.85;0.70;;;2.10;97.40;;;;;;5075225;28;20025;-82
2022/02/16 03:02:34;;;;;;;0.65;0.60;;;2.10;97.60;;;;;;5075126;28;20017;-82
2022/02/16 03:05:01;;;;;;;0.88;0.70;;;2.10;97.70;;;;;;5078683;28;20040;-84
2022/02/16 03:07:27;;;;;;;0.75;0.43;;;2.20;98.00;;;;;;5079136;28;20021;-81
2022/02/16 03:09:53;;;;;;;1.35;0.60;;;2.20;98.20;;;;;;5077501;28;20032;-82
2022/02/16 03:12:19;;;;;;;0.82;0.70;;;2.10;98.40;;;;;;5073294;28;20025;-83
2022/02/16 03:14:45;;;;;;;1.00;0.60;;;2.10;98.60;;;;;;5071568;28;20094;-82
2022/02/16 03:17:11;;;;;;;0.75;0.60;;;2.00;98.90;;;;;;5072137;28;20029;-83
2022/02/16 03:19:36;;;;;;;1.50;0.80;;;2.00;99.20;;;;;;5072251;28;20033;-82
2022/02/16 03:22:06;;;;;;;0.98;0.50;;;2.00;99.50;;;;;;5054478;28;20048;-83
2022/02/16 03:24:34;;;;;;;1.60;0.60;;;2.10;99.70;;;;;;5072322;28;20001;-82
2022/02/16 03:27:00;;;;;;;0.80;0.68;;;2.10;99.70;;;;;;5071028;28;20025;-82
2022/02/16 03:29:26;;;;;;;1.00;0.73;;;2.10;99.80;;;;;;5058171;28;20031;-82
2022/02/16 03:31:52;;;;;;;0.82;0.60;;;2.10;99.80;;;;;;5072449;28;20071;-81
2022/02/16 03:34:21;;;;;;;0.50;0.50;;;2.10;99.80;;;;;;5073205;28;20055;-82
2022/02/16 03:36:47;;;;;;;1.25;0.70;;;2.20;99.80;;;;;;5072475;28;20025;-82
2022/02/16 03:39:12;;;;;;;2.22;0.88;;;2.20;99.90;;;;;;5055246;28;20032;-80
2022/02/16 03:41:38;;;;;;;1.10;0.50;;;2.10;99.90;;;;;;5055238;28;20032;-82
2022/02/16 03:44:05;;;;;;;1.17;0.65;;;2.20;99.90;;;;;;5055010;28;20021;-83
2022/02/16 03:46:33;;;;;;;0.50;0.50;;;2.10;99.70;;;;;;5072593;28;20044;-81
2022/02/16 03:48:59;;;;;;;0.40;0.35;;;2.10;99.80;;;;;;5072988;28;20077;-82
2022/02/16 03:51:25;;;;;;;0.70;0.50;;;2.10;99.80;;;;;;5073202;28;20032;-83
2022/02/16 03:53:51;;;;;;;0.95;0.40;;;2.10;99.70;;;;;;5072981;28;20013;-82
2022/02/16 03:56:19;;;;;;;0.68;0.40;;;2.10;99.80;;;;;;5073896;28;20027;-82
2022/02/16 03:58:45;;;;;;;0.30;0.30;;;2.10;99.80;;;;;;5073844;28;20021;-81
2022/02/16 04:01:11;;;;;;;1.00;0.32;;;2.10;99.80;;;;;;5075162;28;20025;-82
2022/02/16 04:03:37;;;;;;;1.10;0.50;;;2.10;99.90;;;;;;5057317;28;20016;-83
2022/02/16 04:06:03;;;;;;;0.70;0.40;;;2.10;99.70;;;;;;5074291;28;20052;-82
2022/02/16 04:08:29;;;;;;;0.52;0.52;;;2.10;99.70;;;;;;5056823;28;20017;-82
2022/02/16 04:10:55;;;;;;;2.85;0.60;;;2.20;99.70;;;;;;5074774;28;20032;-83
2022/02/16 04:13:21;;;;;;;0.52;0.52;;;2.20;99.70;;;;;;5076075;28;20031;-82
2022/02/16 04:15:46;;;;;;;0.60;0.47;;;2.20;99.60;;;;;;5070738;28;20043;-83
2022/02/16 04:18:12;;;;;;;0.80;0.38;;;2.30;99.40;;;;;;5071935;28;20041;-81
2022/02/16 04:20:41;;;;;;;0.43;0.43;;;2.30;99.40;;;;;;5063022;28;20013;-81
2022/02/16 04:23:09;;;;;;;0.38;0.30;;;2.20;99.30;;;;;;5062761;28;20017;-81
2022/02/16 04:25:40;;;;;;;0.63;0.38;;;2.20;99.40;;;;;;5080156;28;20005;-83
2022/02/16 04:28:14;;;;;;;0.98;0.60;;;2.20;99.40;;;;;;5083643;22;20063;-84
2022/02/16 04:30:46;;;;;;;0.73;0.50;;;2.20;99.40;;;;;;5018992;28;20017;-84
2022/02/16 04:33:25;;;;;;;1.08;0.40;;;2.30;99.50;;;;;;5018035;28;20022;-83
2022/02/16 04:35:51;;;;;;;0.30;0.30;;;2.30;99.40;;;;;;5018931;28;20034;-84
2022/02/16 04:38:16;;;;;;;1.63;0.57;;;2.30;99.40;;;;;;5036044;28;20045;-83
2022/02/16 04:40:43;;;;;;;0.70;0.63;;;2.20;99.30;;;;;;5020046;28;20041;-83
2022/02/16 04:43:12;;;;;;;0.30;0.30;;;2.20;99.30;;;;;;5035803;28;20045;-82
2022/02/16 04:45:38;;;;;;;0.75;0.68;;;2.30;99.40;;;;;;5036848;28;20025;-83
2022/02/16 04:48:05;;;;;;;0.43;0.30;;;2.30;99.20;;;;;;5019561;28;20026;-80
2022/02/16 04:50:32;;;;;;;0.20;0.20;;;2.30;99.10;;;;;;5015181;28;20025;-80
2022/02/16 04:52:57;;;;;;;0.30;0.30;;;2.40;99.20;;;;;;5031507;28;20041;-80
2022/02/16 04:55:25;;;;;;;1.70;0.30;;;2.40;99.10;;;;;;5017467;28;20038;-80
2022/02/16 04:57:51;;;;;;;0.90;0.50;;;2.50;98.90;;;;;;5062463;28;20021;-80
2022/02/16 05:00:18;;;;;;;0.88;0.45;;;2.60;98.70;;;;;;5057007;28;20025;-80
2022/02/16 05:02:44;;;;;;;1.38;0.40;;;2.60;98.40;;;;;;5074778;28;20040;-81
2022/02/16 05:05:10;;;;;;;0.93;0.43;;;2.60;98.20;;;;;;5056812;28;20025;-82
2022/02/16 05:07:36;;;;;;;2.08;0.40;;;2.60;98.00;;;;;;5074697;28;20036;-80
2022/02/16 05:10:02;;;;;;;0.50;0.30;;;2.60;97.90;;;;;;5075209;28;20052;-80
2022/02/16 05:12:32;;;;;;;0.45;0.30;;;2.60;97.90;;;;;;5075119;28;20056;-79
2022/02/16 05:15:00;;;;;;;0.82;0.20;;;2.60;97.90;;;;;;5057806;28;20033;-81
2022/02/16 05:17:26;;;;;;;0.47;0.40;;;2.60;97.80;;;;;;5075428;28;20021;-80
2022/02/16 05:19:51;;;;;;;1.20;0.40;;;2.60;97.80;;;;;;5075459;28;20033;-81
2022/02/16 05:22:20;;;;;;;0.30;0.30;;;2.60;97.70;;;;;;5076112;28;20025;-80
2022/02/16 05:24:46;;;;;;;0.88;0.30;;;2.70;97.60;;;;;;5075925;28;20335;-81
2022/02/16 05:27:12;;;;;;;0.38;0.30;;;2.70;97.60;;;;;;5072230;28;20088;-81
2022/02/16 05:29:38;;;;;;;0.50;0.40;;;2.70;97.40;;;;;;5068939;28;20032;-80
2022/02/16 05:32:04;;;;;;;0.95;0.50;;;2.60;97.40;;;;;;5069513;28;20032;-79
2022/02/16 05:34:30;;;;;;;0.63;0.63;;;2.70;97.40;;;;;;5071237;28;20063;-81
2022/02/16 05:36:56;;;;;;;0.95;0.40;;;2.60;97.30;;;;;;5070487;28;20025;-81
2022/02/16 05:39:22;;;;;;;0.95;0.43;;;2.70;97.20;;;;;;5071745;28;20508;-81
2022/02/16 05:41:49;;;;;;;2.63;0.52;;;2.70;97.20;;;;;;5073198;28;20025;-80
2022/02/16 05:44:15;;;;;;;2.20;0.50;;;2.60;97.10;;;;;;5077310;28;20040;-80
2022/02/16 05:46:41;;;;;;;0.38;0.32;;;2.70;97.00;;;;;;5068016;28;20469;-80
2022/02/16 05:49:08;;;;;;;0.60;0.40;;;2.70;96.90;;;;;;5047901;28;20052;-80
2022/02/16 05:51:35;;;;;;;0.75;0.30;;;2.80;96.80;;;;;;5064924;28;20028;-79
2022/02/16 05:54:02;;;;;;;1.15;0.60;;;2.80;96.40;;;;;;5062807;28;20078;-81
2022/02/16 05:56:27;;;;;;;1.70;0.50;;;2.90;96.10;;;;;;5062955;28;20029;-81
2022/02/16 05:58:53;;;;;;;1.08;0.52;;;3.00;95.80;;;;;;5062251;28;20412;-81
2022/02/16 06:01:19;;;;;;;0.55;0.52;;;3.00;95.50;;;;;;5063169;28;20021;-82
2022/02/16 06:03:45;;;;;;;1.40;0.80;;;3.00;95.30;;;;;;5043757;28;20051;-80
2022/02/16 06:06:11;;;;;;;1.05;0.77;;;3.10;95.00;;;;;;5044469;28;20025;-80
2022/02/16 06:08:37;;;;;;;1.65;0.70;;;3.20;94.80;;;;;;5063652;28;20031;-80
2022/02/16 06:11:03;;;;;;;0.77;0.40;;;3.20;94.60;;;;;;5046663;28;20033;-80
2022/02/16 06:13:29;;;;;;;0.98;0.40;;;3.20;94.60;;;;;;5061748;28;20269;-80
2022/02/16 06:15:55;;;;;;;1.65;0.80;;;3.20;94.40;;;;;;5062332;28;20028;-80
2022/02/16 06:18:21;;;;;;;1.75;0.75;;;3.30;94.20;;;;;;5062130;28;20025;-81
2022/02/16 06:20:47;;;;;;;0.80;0.60;;;3.30;94.10;;;;;;5063591;28;20032;-82
2022/02/16 06:23:13;;;;;;;0.50;0.50;;;3.40;93.80;;;;;;5045200;28;20025;-81
2022/02/16 06:25:39;;;;;;;1.38;0.60;;;3.40;93.40;;;;;;5046079;28;20098;-80
2022/02/16 06:28:05;;;;;;;0.50;0.50;;;3.40;93.30;;;;;;5063053;28;20033;-81
2022/02/16 06:30:31;;;;;;;2.15;0.65;;;3.40;93.10;;;;;;5063174;28;20017;-81
2022/02/16 06:32:57;;;;;;;2.88;0.50;;;3.40;93.00;;;;;;5062821;28;20017;-81
2022/02/16 06:35:23;;;;;;;0.65;0.50;;;3.50;92.80;;;;;;5064176;28;20033;-80
2022/02/16 06:37:49;;;;;;;2.08;0.70;;;3.50;92.70;;;;;;5070998;28;20025;-81
2022/02/16 06:40:16;;;;;;;1.55;0.40;;;3.50;92.50;;;;;;5076090;28;20024;-81
2022/02/16 06:42:43;;;;;;;0.50;0.50;;;3.60;92.20;;;;;;5074331;28;20032;-80
2022/02/16 06:45:10;;;;;;;0.70;0.43;;;3.60;92.10;;;;;;5071570;28;20025;-81
2022/02/16 06:47:37;;;;;;;1.08;0.30;;;3.60;91.90;;;;;;5072113;28;20037;-80
2022/02/16 06:50:04;;;;;;;2.15;0.63;;;3.70;91.90;;;;;;5050622;28;20052;-80
2022/02/16 06:52:30;;;;;;;2.22;0.40;;;3.70;91.70;;;;;;5067406;28;20390;-79
2022/02/16 06:54:55;;;;;;;0.93;0.60;;;3.70;91.50;;;;;;5067344;28;20110;-80
2022/02/16 06:57:21;;;;;;;1.40;0.60;;;3.80;91.40;;;;;;5068039;28;20027;-79
2022/02/16 06:59:47;;;;;;;0.80;0.47;;;3.90;91.30;;;;;;5067448;28;20082;-80
2022/02/16 07:02:13;;;;;;;1.55;1.35;;;3.90;91.10;;;;;;5066603;28;20036;-82
2022/02/16 07:04:39;;;;;;;0.55;0.47;;;3.90;90.80;;;;;;5067621;28;20028;-80
2022/02/16 07:07:05;;;;;;;0.95;0.57;;;4.00;90.60;;;;;;5068172;28;20075;-82
2022/02/16 07:09:31;;;;;;;2.38;0.30;;;4.00;90.50;;;;;;5066180;28;20035;-82
2022/02/16 07:11:57;;;;;;;0.73;0.30;;;4.10;90.40;;;;;;5066460;28;20075;-81
2022/02/16 07:14:24;;;;;;;0.52;0.30;;;4.20;90.30;;;;;;5031826;28;20033;-82
2022/02/16 07:16:50;;;;;;;0.75;0.50;;;4.30;90.10;;;;;;5065632;28;20032;-82
2022/02/16 07:19:23;;;;;;;1.38;0.50;;;4.50;88.90;;;;;;5048114;28;20025;-81
2022/02/16 07:21:48;;;;;;;1.05;0.60;;;4.70;88.30;;;;;;5047906;28;20005;-82
2022/02/16 07:24:14;;;;;;;1.27;0.52;;;4.90;87.50;;;;;;5064925;28;20032;-81
2022/02/16 07:26:40;;;;;;;1.45;0.75;;;5.00;86.00;;;;;;5066638;28;20081;-81
2022/02/16 07:29:06;;;;;;;0.75;0.52;;;5.10;85.00;;;;;;5045685;28;20025;-83
2022/02/16 07:31:31;;;;;;;0.40;0.40;;;5.10;84.70;;;;;;5064683;28;20021;-82
2022/02/16 07:33:57;;;;;;;2.78;0.57;;;5.10;84.40;;;;;;5066493;28;20028;-82
2022/02/16 07:36:23;;;;;;;1.05;0.63;;;5.20;83.90;;;;;;5067187;28;20106;-83
2022/02/16 07:38:49;;;;;;;1.95;0.50;;;5.20;83.60;;;;;;5065397;28;20025;-83
2022/02/16 07:41:15;;;;;;;3.33;0.70;;;5.30;83.40;;;;;;5064628;28;20017;-81
2022/02/16 07:43:41;;;;;;;0.70;0.50;;;5.40;83.10;;;;;;5047303;28;20025;-82
2022/02/16 07:46:08;;;;;;;1.10;0.50;;;5.40;82.50;;;;;;5065692;28;20051;-82
2022/02/16 07:48:34;;;;;;;2.78;0.50;;;5.50;81.80;;;;;;5067524;28;20122;-81
2022/02/16 07:51:00;;;;;;;0.57;0.50;;;5.50;81.50;;;;;;5066226;28;20052;-82
2022/02/16 07:53:26;;;;;;;1.05;0.25;;;5.50;81.00;;;;;;5066388;28;20025;-80
2022/02/16 07:55:52;;;;;;;0.52;0.40;;;5.60;80.00;;;;;;5047694;28;20462;-83
2022/02/16 07:58:18;;;;;;;2.50;0.30;;;5.60;79.90;;;;;;5048878;28;20271;-82
2022/02/16 08:00:44;;;;;;;1.38;0.50;;;5.70;80.40;;;;;;5068655;28;20551;-82
2022/02/16 08:03:10;;;;;;;0.70;0.60;;;5.80;79.50;;;;;;5069017;28;20029;-83
2022/02/16 08:05:36;;;;;;;1.40;0.43;;;5.90;79.20;;;;;;5071205;28;20035;-82
2022/02/16 08:08:02;;;;;;;0.65;0.47;;;6.00;78.80;;;;;;5041660;28;20366;-83
2022/02/16 08:10:28;;;;;;;1.85;0.60;;;6.20;78.20;;;;;;5075329;28;20081;-83
2022/02/16 08:12:59;;;;;;;1.33;0.43;;;6.40;77.70;;;;;;5076079;28;20033;-81
2022/02/16 08:15:26;;;;;;;2.25;0.60;;;6.60;77.00;;;;;;5059023;28;20056;-83
2022/02/16 08:17:52;;;;;;;1.00;0.30;;;6.80;75.80;;;;;;5078032;28;20082;-80
2022/02/16 08:20:19;;;;;;;2.47;0.80;;;7.00;74.90;;;;;;5078178;28;20013;-82
2022/02/16 08:22:45;;;;;;;3.17;0.55;;;7.20;74.20;;;;;;5077957;28;20059;-82
2022/02/16 08:25:12;;;;;;;1.45;0.40;;;7.30;73.00;;;;;;5077428;28;20045;-81
2022/02/16 08:27:38;;;;;;;1.38;0.40;;;7.40;72.40;;;;;;5076955;28;20019;-81
2022/02/16 08:30:05;;;;;;;0.60;0.45;;;7.50;71.50;;;;;;5077962;28;20021;-81
2022/02/16 08:32:31;;;;;;;0.57;0.40;;;7.60;69.60;;;;;;5067138;22;20055;-80
2022/02/16 08:34:57;;;;;;;0.68;0.50;;;7.70;69.30;;;;;;5013793;28;20405;-82
2022/02/16 08:37:23;;;;;;;0.38;0.30;;;7.80;69.40;;;;;;5049465;28;20014;-80
2022/02/16 08:39:48;;;;;;;1.17;0.63;;;8.10;68.90;;;;;;5039500;28;20042;-81
2022/02/16 08:42:14;;;;;;;2.45;0.70;;;8.30;67.90;;;;;;5048687;28;20048;-83
2022/02/16 08:44:40;;;;;;;1.23;0.68;;;8.20;66.80;;;;;;5043738;28;20026;-84
2022/02/16 08:47:06;;;;;;;0.75;0.35;;;8.20;66.20;;;;;;5043820;28;20031;-83
2022/02/16 08:49:34;;;;;;;0.75;0.40;;;8.10;66.90;;;;;;5041984;28;20108;-83
2022/02/16 08:52:00;;;;;;;1.45;0.73;;;8.00;67.40;;;;;;5025104;28;20052;-83
2022/02/16 08:54:26;;;;;;;0.52;0.38;;;8.10;67.40;;;;;;5044589;28;20025;-82
2022/02/16 08:56:52;;;;;;;2.60;0.40;;;8.20;67.10;;;;;;5034657;28;20047;-82
2022/02/16 08:59:18;;;;;;;0.68;0.55;;;8.30;66.50;;;;;;5050464;28;20026;-84
2022/02/16 09:01:44;;;;;;;0.50;0.50;;;8.50;65.50;;;;;;5019938;28;20022;-82
2022/02/16 09:04:10;;;;;;;0.20;0.20;;;8.60;64.80;;;;;;5012416;28;20025;-80
2022/02/16 09:06:36;;;;;;;0.40;0.40;;;8.80;64.30;;;;;;5047098;28;20056;-83
2022/02/16 09:09:03;;;;;;;0.50;0.50;;;8.80;63.50;;;;;;5042774;28;20675;-83
2022/02/16 09:11:29;;;;;;;2.05;0.60;;;8.80;63.30;;;;;;5021645;28;20026;-82
2022/02/16 09:13:56;;;;;;;2.00;0.70;;;8.70;63.00;;;;;;5004329;28;20026;-83
2022/02/16 09:16:23;;;;;;;0.57;0.57;;;8.70;63.10;;;;;;5008839;28;20029;-82
2022/02/16 09:18:49;;;;;;;0.77;0.45;;;8.60;63.00;;;;;;5004394;28;20026;-82
2022/02/16 09:21:17;;;;;;;1.48;0.50;;;8.50;63.20;;;;;;5029959;28;20022;-83
2022/02/16 09:23:42;;;;;;;0.40;0.40;;;8.40;63.90;;;;;;5031246;28;20034;-83
2022/02/16 09:26:08;;;;;;;1.75;0.50;;;8.30;64.40;;;;;;5034739;28;20081;-84
2022/02/16 09:28:36;;;;;;;0.68;0.68;;;8.20;64.40;;;;;;5036124;28;20033;-82
2022/02/16 09:31:03;;;;;;;1.80;0.70;;;8.20;65.00;;;;;;5017470;28;20022;-83
2022/02/16 09:33:29;;;;;;;0.90;0.60;;;8.10;65.60;;;;;;5035331;28;20119;-83
2022/02/16 09:35:55;;;;;;;0.70;0.70;;;8.10;65.80;;;;;;5022911;28;20026;-82
2022/02/16 09:38:22;;;;;;;1.40;0.60;;;8.10;66.50;;;;;;5022792;28;20316;-82
2022/02/16 09:40:49;;;;;;;0.93;0.60;;;8.10;66.80;;;;;;5022930;28;20073;-82
2022/02/16 09:43:17;;;;;;;0.68;0.57;;;8.10;67.50;;;;;;5032626;28;20050;-82
2022/02/16 09:45:44;;;;;;;0.93;0.75;;;8.30;67.90;;;;;;5022973;28;20049;-82
2022/02/16 09:48:13;;;;;;;0.30;0.30;;;8.40;67.90;;;;;;5006454;28;20026;-82
2022/02/16 09:50:38;;;;;;;1.23;0.50;;;8.50;68.00;;;;;;5022687;28;20344;-83
2022/02/16 09:53:04;;;;;;;0.80;0.63;;;8.60;68.00;;;;;;5005920;28;20325;-82
2022/02/16 09:55:30;;;;;;;0.60;0.57;;;8.70;67.80;;;;;;5030940;28;20030;-83
2022/02/16 09:57:56;;;;;;;1.42;0.70;;;8.90;67.20;;;;;;5039778;28;20025;-83
2022/02/16 10:00:22;;;;;;;1.13;0.65;;;8.90;66.60;;;;;;5042579;28;20022;-82
2022/02/16 10:02:48;;;;;;;2.00;0.73;;;9.00;66.10;;;;;;5022879;28;20140;-83
2022/02/16 10:05:16;;;;;;;0.40;0.40;;;9.00;65.40;;;;;;5038795;28;20029;-82
2022/02/16 10:07:47;;;;;;;1.33;0.75;;;9.00;65.60;;;;;;5043170;28;20080;-82
2022/02/16 10:10:21;;;;;;;1.00;0.60;;;9.00;65.60;;;;;;5023571;28;20021;-82
2022/02/16 10:12:52;;;;;;;0.50;0.50;;;9.10;65.60;;;;;;5024406;28;20071;-81
2022/02/16 10:15:36;;;;;;;0.73;0.60;;;9.20;65.60;;;;;;5043235;28;20061;-81
2022/02/16 10:18:10;;;;;;;1.55;0.50;;;9.40;64.30;;;;;;5041305;28;20553;-81
2022/02/16 10:20:37;;;;;;;0.52;0.52;;;9.50;64.10;;;;;;5024032;28;20021;-82
2022/02/16 10:23:03;;;;;;;1.23;0.93;;;9.60;63.70;;;;;;5042532;28;20024;-82
2022/02/16 10:25:36;;;;;;;1.13;0.80;;;9.50;63.40;;;;;;5029333;28;20026;-84
2022/02/16 10:28:11;;;;;;;0.70;0.52;;;9.30;63.80;;;;;;5042288;28;20080;-81
2022/02/16 10:30:57;;;;;;;1.42;0.60;;;9.20;64.50;;;;;;5025722;28;20029;-82
2022/02/16 10:33:42;;;;;;;1.35;0.70;;;9.20;64.20;;;;;;5019799;28;20482;-82
2022/02/16 10:36:14;;;;;;;1.25;0.82;;;9.30;65.00;;;;;;5043881;28;20159;-84
2022/02/16 10:39:03;;;;;;;2.85;0.55;;;9.50;64.60;;;;;;5026460;28;20046;-83
2022/02/16 10:41:43;;;;;;;1.15;0.85;;;9.70;64.40;;;;;;5043233;28;20099;-83
2022/02/16 10:44:27;;;;;;;1.95;0.80;;;10.00;63.80;;;;;;5024998;28;20481;-84
2022/02/16 10:47:10;;;;;;;1.98;0.88;;;10.20;62.90;;;;;;5043823;28;20029;-84
2022/02/16 10:49:43;;;;;;;1.25;0.75;;;10.30;62.50;;;;;;5045322;28;20032;-82
2022/02/16 10:52:21;;;;;;;2.72;0.93;;;10.30;62.90;;;;;;5028158;28;20052;-84
2022/02/16 10:55:04;;;;;;;0.80;0.65;;;10.20;63.10;;;;;;5048565;28;20025;-82
2022/02/16 10:57:30;;;;;;;0.90;0.60;;;10.00;63.60;;;;;;5021925;28;20026;-81
2022/02/16 11:00:00;;;;;;;1.13;0.52;;;9.80;64.30;;;;;;5005370;28;20056;-84
2022/02/16 11:02:34;;;;;;;1.40;1.15;;;9.70;65.70;;;;;;5005400;28;20018;-84
2022/02/16 11:05:02;;;;;;;2.83;1.55;;;9.60;66.70;;;;;;5032527;28;20056;-81
2022/02/16 11:07:36;;;;;;;1.65;1.20;;;9.60;67.80;;;;;;5026578;28;20065;-83
2022/02/16 11:10:06;;;;;;;1.38;1.23;;;9.70;68.70;;;;;;5052929;28;20026;-82
2022/02/16 11:12:32;;;;;;;0.98;0.82;;;9.80;69.10;;;;;;5051007;28;20052;-81
2022/02/16 11:14:58;;;;;;;1.20;0.70;;;9.90;69.50;;;;;;5050819;28;20018;-82
2022/02/16 11:17:27;;;;;;;1.10;0.68;;;10.00;70.10;;;;;;5051719;28;20026;-82
2022/02/16 11:20:18;;;;;;;0.75;0.50;;;10.20;70.40;;;;;;5049817;28;20038;-83
2022/02/16 11:23:02;;;;;;;2.20;0.90;;;10.40;70.30;;;;;;5016300;28;20030;-82
2022/02/16 11:25:32;;;;;;;0.77;0.45;;;10.50;70.20;;;;;;5028913;28;20026;-83
2022/02/16 11:27:59;;;;;;;0.40;0.40;;;10.40;70.60;;;;;;5010474;28;20033;-82
2022/02/16 11:30:36;;;;;;;0.88;0.60;;;10.40;71.20;;;;;;5039126;28;20025;-81
2022/02/16 11:33:29;;;;;;;0.75;0.52;;;10.40;71.30;;;;;;5018416;28;20046;-81
2022/02/16 11:35:57;;;;;;;1.08;0.50;;;10.30;72.10;;;;;;5044381;28;20084;-82
2022/02/16 11:38:40;;;;;;;1.38;0.70;;;10.30;72.90;;;;;;5042501;28;20042;-82
2022/02/16 11:41:28;;;;;;;1.90;0.80;;;10.30;73.60;;;;;;5025410;28;20108;-81
2022/02/16 11:43:57;;;;;;;0.60;0.50;;;10.20;74.00;;;;;;5024611;28;20044;-83
2022/02/16 11:46:43;;;;;;;1.33;0.47;;;10.20;74.60;;;;;;5024749;28;20477;-82
2022/02/16 11:49:30;;;;;;;0.70;0.35;;;10.10;75.70;;;;;;5024316;28;20045;-85
2022/02/16 11:51:57;;;;;;;1.40;0.50;;;10.00;76.00;;;;;;4996338;28;20030;-84
2022/02/16 11:54:43;;;;;;;1.60;0.30;;;9.90;76.90;;;;;;5023087;28;20026;-84
2022/02/16 11:57:30;;;;;;;1.05;0.70;;;9.80;78.00;;;;;;5005091;28;20054;-84
2022/02/16 11:59:56;;;;;;;1.27;0.40;;;9.70;79.20;;;;;;5023817;28;20053;-84
2022/02/16 12:02:22;;;;;;;2.20;0.60;;;9.60;80.30;;;;;;5029700;28;20022;-82
2022/02/16 12:04:57;;;;;;;0.52;0.50;;;9.70;81.00;;;;;;5023883;28;20136;-84
2022/02/16 12:07:29;;;;;;;0.40;0.40;;;9.90;80.90;;;;;;5017430;28;20022;-84
2022/02/16 12:10:13;;;;;;;1.58;1.00;;;9.90;81.30;;;;;;5006692;28;20052;-84
2022/02/16 12:12:40;;;;;;;0.85;0.40;;;9.70;82.60;;;;;;5023956;28;20387;-83
2022/02/16 12:15:07;;;;;;;0.30;0.30;;;9.70;84.30;;;;;;5022700;28;20033;-82
2022/02/16 12:17:34;;;;;;;0.73;0.50;;;9.80;85.30;;;;;;5027025;28;20014;-84
2022/02/16 12:20:01;;;;;;;0.73;0.32;;;10.00;84.80;;;;;;5024507;28;20044;-84
2022/02/16 12:22:27;;;;;;;1.00;0.40;;;10.10;84.80;;;;;;5021905;28;20049;-84
2022/02/16 12:24:52;;;;;;;0.68;0.55;;;10.20;84.60;;;;;;5023513;28;20017;-82
2022/02/16 12:27:22;;;;;;;0.50;0.47;;;10.30;84.30;;;;;;5025927;28;20091;-81
2022/02/16 12:29:48;;;;;;;0.82;0.52;;;10.40;84.10;;;;;;5046491;28;20094;-82
2022/02/16 12:32:19;;;;;;;1.13;0.57;;;10.50;84.00;;;;;;5045864;28;20148;-83
2022/02/16 12:34:46;;;;;;;1.70;0.40;;;10.40;84.60;;;;;;5049325;28;20042;-81
2022/02/16 12:37:18;;;;;;;0.52;0.40;;;10.30;85.40;;;;;;5050919;28;20032;-84
2022/02/16 12:40:00;;;;;;;0.80;0.65;;;10.30;85.70;;;;;;5022035;28;20513;-84
2022/02/16 12:42:32;;;;;;;0.55;0.40;;;10.20;86.50;;;;;;5002363;28;20086;-84
2022/02/16 12:44:58;;;;;;;0.50;0.28;;;10.10;87.40;;;;;;5022968;28;20030;-83
2022/02/16 12:47:25;;;;;;;0.40;0.20;;;10.10;87.60;;;;;;5022682;28;20036;-82
2022/02/16 12:49:52;;;;;;;2.25;0.40;;;10.10;87.30;;;;;;5023666;28;20398;-82
2022/02/16 12:52:19;;;;;;;0.65;0.40;;;10.10;87.40;;;;;;5024734;28;20056;-83
2022/02/16 12:54:45;;;;;;;0.65;0.30;;;10.20;87.20;;;;;;5025828;28;20026;-84
2022/02/16 12:57:13;;;;;;;1.70;0.30;;;10.20;87.30;;;;;;5023627;28;20280;-84
2022/02/16 13:00:46;;;;;;;2.38;0.45;;;10.20;87.30;;;;;;5023433;28;20021;-83